SEKCJA WYDRUKÓW, pokaż »

TAF EPBY 282330Z 2900/2924 23006KT 9999 SCT006 BKN017
PROB40 TEMPO 2900/2906 VRB02KT 4000 -RA BR BKN003 OVC012
BECMG 2907/2909 SCT009 BKN014
BECMG 2911/2913 27008KT CAVOK=

TAF EPGD 282330Z 2900/2924 VRB03KT 9999 SCT035
TEMPO 2900/2907 4000 -RA BR BKN005 BKN012
PROB40 2900/2905 1000 BR BKN002
BECMG 2901/2904 26010KT
TEMPO 2909/2915 BKN020TCU=

TAF EPKK 282330Z 2900/2924 24004KT 9999 BKN046
TEMPO 2900/2908 4000 SHRA BR BKN020CB
BECMG 2903/2906 BKN012
PROB40 TEMPO 2903/2907 2000 BR
BECMG 2908/2910 BKN016=

TAF EPKT 282330Z 2900/2924 30003KT 9999 BKN040
TEMPO 2900/2906 4000 -RA BR
PROB30 TEMPO 2903/2906 0300 FG BKN003
TEMPO 2921/2924 4000 BR=

TAF EPLB 282330Z 2900/2924 22005KT 9999 SCT030
BECMG 2902/2904 BKN012
TEMPO 2902/2909 3000 -RA BR BKN005
BECMG 2909/2911 BKN020=

TAF EPLL 282330Z 2900/2924 VRB03KT CAVOK
TEMPO 2900/2909 3000 BR BKN006
PROB40 TEMPO 2900/2908 1500 BR BKN003
PROB30 TEMPO 2900/2907 0700 FG OVC001
BECMG 2907/2909 27010KT=

TAF EPMO 282330Z 2900/2924 VRB04KT 7000 NSC
TEMPO 2900/2908 1500 BR
PROB40 2900/2907 0400 FG BKN002
BECMG 2907/2909 26010KT
BECMG 2917/2919 VRB02KT=

TAF EPPO 282330Z 2900/2924 VRB02KT 9999 SCT030
BECMG 2901/2904 0700 FG BKN003
BECMG 2905/2908 CAVOK=

TAF EPRZ 282330Z 2900/2924 20010KT CAVOK
BECMG 2900/2903 VRB02KT 4000 -RA BR BKN013
TEMPO 2902/2915 2000 RA BR BKN008 OVC010
BECMG 2915/2918 8000 BKN016
BECMG 2921/2924 2000 BR=

TAF AMD EPSC 290127Z 2901/2924 20008KT CAVOK
TEMPO 2901/2908 0600 FG BKN002
PROB40 TEMPO 2901/2907 0200 FG OVC000=

TAF AMD EPWA 290129Z 2901/2924 VRB04KT CAVOK
TEMPO 2901/2907 0800 FG BKN002
PROB40 2901/2906 0500 FG BKN001
BECMG 2906/2909 26010KT
BECMG 2917/2919 VRB02KT=

TAF EPWR 282330Z 2900/2924 VRB02KT CAVOK
BECMG 2901/2904 0700 FG BKN003
BECMG 2905/2908 CAVOK=